sensor_id;sensor_type;location;lat;lon;timestamp;P1;durP1;ratioP1;P2;durP2;ratioP2
40847;SDS011;26570;50.962;5.340;2022-11-20T00:01:49;36.43;;;22.30;;
40847;SDS011;26570;50.962;5.340;2022-11-20T00:04:34;34.27;;;21.53;;
40847;SDS011;26570;50.962;5.340;2022-11-20T00:07:19;36.13;;;22.33;;
40847;SDS011;26570;50.962;5.340;2022-11-20T00:10:04;37.23;;;21.70;;
40847;SDS011;26570;50.962;5.340;2022-11-20T00:12:50;35.53;;;21.60;;
40847;SDS011;26570;50.962;5.340;2022-11-20T00:15:35;33.87;;;20.63;;
40847;SDS011;26570;50.962;5.340;2022-11-20T00:18:19;37.83;;;21.50;;
40847;SDS011;26570;50.962;5.340;2022-11-20T00:21:06;39.17;;;21.07;;
40847;SDS011;26570;50.962;5.340;2022-11-20T00:23:54;38.30;;;20.60;;
40847;SDS011;26570;50.962;5.340;2022-11-20T00:26:40;37.00;;;21.47;;
40847;SDS011;26570;50.962;5.340;2022-11-20T00:29:25;33.10;;;20.10;;
40847;SDS011;26570;50.962;5.340;2022-11-20T00:32:11;39.77;;;21.27;;
40847;SDS011;26570;50.962;5.340;2022-11-20T00:34:56;35.10;;;21.30;;
40847;SDS011;26570;50.962;5.340;2022-11-20T00:37:41;38.77;;;22.47;;
40847;SDS011;26570;50.962;5.340;2022-11-20T00:40:26;33.87;;;21.20;;
40847;SDS011;26570;50.962;5.340;2022-11-20T00:43:11;39.40;;;21.97;;
40847;SDS011;26570;50.962;5.340;2022-11-20T00:45:57;33.07;;;20.93;;
40847;SDS011;26570;50.962;5.340;2022-11-20T00:48:46;32.90;;;20.57;;
40847;SDS011;26570;50.962;5.340;2022-11-20T00:51:31;36.90;;;22.37;;
40847;SDS011;26570;50.962;5.340;2022-11-20T00:54:16;38.03;;;21.77;;
40847;SDS011;26570;50.962;5.340;2022-11-20T00:57:01;34.27;;;21.03;;
40847;SDS011;26570;50.962;5.340;2022-11-20T00:59:47;36.47;;;22.03;;
40847;SDS011;26570;50.962;5.340;2022-11-20T01:02:31;41.63;;;22.67;;
40847;SDS011;26570;50.962;5.340;2022-11-20T01:05:16;41.30;;;23.07;;
40847;SDS011;26570;50.962;5.340;2022-11-20T01:08:01;38.97;;;22.17;;
40847;SDS011;26570;50.962;5.340;2022-11-20T01:10:47;38.37;;;22.27;;
40847;SDS011;26570;50.962;5.340;2022-11-20T01:13:32;40.07;;;23.47;;
40847;SDS011;26570;50.962;5.340;2022-11-20T01:16:24;42.33;;;23.83;;
40847;SDS011;26570;50.962;5.340;2022-11-20T01:19:16;39.93;;;23.40;;
40847;SDS011;26570;50.962;5.340;2022-11-20T01:22:03;39.87;;;22.80;;
40847;SDS011;26570;50.962;5.340;2022-11-20T01:24:48;39.50;;;23.10;;
40847;SDS011;26570;50.962;5.340;2022-11-20T01:27:32;42.67;;;22.97;;
40847;SDS011;26570;50.962;5.340;2022-11-20T01:30:18;37.60;;;22.33;;
40847;SDS011;26570;50.962;5.340;2022-11-20T01:33:02;40.30;;;23.20;;
40847;SDS011;26570;50.962;5.340;2022-11-20T01:35:47;40.53;;;22.93;;
40847;SDS011;26570;50.962;5.340;2022-11-20T01:38:32;39.70;;;22.23;;
40847;SDS011;26570;50.962;5.340;2022-11-20T01:41:17;39.37;;;22.93;;
40847;SDS011;26570;50.962;5.340;2022-11-20T01:44:39;38.38;;;23.00;;
40847;SDS011;26570;50.962;5.340;2022-11-20T01:47:44;41.57;;;21.73;;
40847;SDS011;26570;50.962;5.340;2022-11-20T01:50:30;38.63;;;23.10;;
40847;SDS011;26570;50.962;5.340;2022-11-20T01:53:18;38.40;;;22.93;;
40847;SDS011;26570;50.962;5.340;2022-11-20T01:56:06;45.03;;;22.47;;
40847;SDS011;26570;50.962;5.340;2022-11-20T01:58:55;39.03;;;22.83;;
40847;SDS011;26570;50.962;5.340;2022-11-20T02:01:45;42.47;;;22.77;;
40847;SDS011;26570;50.962;5.340;2022-11-20T02:04:31;40.37;;;23.10;;
40847;SDS011;26570;50.962;5.340;2022-11-20T02:07:16;39.63;;;23.43;;
40847;SDS011;26570;50.962;5.340;2022-11-20T02:10:02;37.20;;;21.60;;
40847;SDS011;26570;50.962;5.340;2022-11-20T02:12:47;37.67;;;22.77;;
40847;SDS011;26570;50.962;5.340;2022-11-20T02:15:51;38.17;;;22.55;;
40847;SDS011;26570;50.962;5.340;2022-11-20T02:18:36;43.00;;;23.80;;
40847;SDS011;26570;50.962;5.340;2022-11-20T02:27:12;47.50;;;24.17;;
40847;SDS011;26570;50.962;5.340;2022-11-20T02:30:03;42.07;;;23.53;;
40847;SDS011;26570;50.962;5.340;2022-11-20T02:32:51;39.43;;;22.00;;
40847;SDS011;26570;50.962;5.340;2022-11-20T02:35:39;41.33;;;23.30;;
40847;SDS011;26570;50.962;5.340;2022-11-20T02:38:26;40.47;;;23.47;;
40847;SDS011;26570;50.962;5.340;2022-11-20T02:41:11;38.17;;;22.50;;
40847;SDS011;26570;50.962;5.340;2022-11-20T02:43:56;47.27;;;22.93;;
40847;SDS011;26570;50.962;5.340;2022-11-20T02:46:40;40.40;;;23.17;;
40847;SDS011;26570;50.962;5.340;2022-11-20T02:49:25;38.63;;;22.50;;
40847;SDS011;26570;50.962;5.340;2022-11-20T02:52:10;43.67;;;25.27;;
40847;SDS011;26570;50.962;5.340;2022-11-20T02:54:56;44.40;;;23.63;;
40847;SDS011;26570;50.962;5.340;2022-11-20T02:57:41;41.70;;;24.57;;
40847;SDS011;26570;50.962;5.340;2022-11-20T03:00:26;39.70;;;22.63;;
40847;SDS011;26570;50.962;5.340;2022-11-20T03:03:11;41.77;;;23.50;;
40847;SDS011;26570;50.962;5.340;2022-11-20T03:05:58;39.83;;;23.30;;
40847;SDS011;26570;50.962;5.340;2022-11-20T03:08:43;42.70;;;23.37;;
40847;SDS011;26570;50.962;5.340;2022-11-20T03:11:28;41.00;;;22.53;;
40847;SDS011;26570;50.962;5.340;2022-11-20T03:14:13;44.37;;;23.00;;
40847;SDS011;26570;50.962;5.340;2022-11-20T03:16:58;36.40;;;21.67;;
40847;SDS011;26570;50.962;5.340;2022-11-20T03:19:43;37.77;;;21.87;;
40847;SDS011;26570;50.962;5.340;2022-11-20T03:22:29;38.10;;;21.80;;
40847;SDS011;26570;50.962;5.340;2022-11-20T03:25:14;36.73;;;20.97;;
40847;SDS011;26570;50.962;5.340;2022-11-20T03:27:59;36.77;;;20.83;;
40847;SDS011;26570;50.962;5.340;2022-11-20T03:30:44;40.27;;;24.00;;
40847;SDS011;26570;50.962;5.340;2022-11-20T03:33:29;38.77;;;21.53;;
40847;SDS011;26570;50.962;5.340;2022-11-20T03:36:15;36.60;;;22.03;;
40847;SDS011;26570;50.962;5.340;2022-11-20T03:39:02;40.83;;;21.03;;
40847;SDS011;26570;50.962;5.340;2022-11-20T03:41:47;35.27;;;21.37;;
40847;SDS011;26570;50.962;5.340;2022-11-20T03:44:32;35.00;;;21.37;;
40847;SDS011;26570;50.962;5.340;2022-11-20T03:47:17;38.83;;;21.67;;
40847;SDS011;26570;50.962;5.340;2022-11-20T03:50:02;38.07;;;21.40;;
40847;SDS011;26570;50.962;5.340;2022-11-20T03:52:47;35.70;;;21.63;;
40847;SDS011;26570;50.962;5.340;2022-11-20T03:55:32;33.20;;;20.67;;
40847;SDS011;26570;50.962;5.340;2022-11-20T03:58:17;35.77;;;20.90;;
40847;SDS011;26570;50.962;5.340;2022-11-20T04:01:09;37.30;;;21.17;;
40847;SDS011;26570;50.962;5.340;2022-11-20T04:03:56;31.65;;;19.83;;
40847;SDS011;26570;50.962;5.340;2022-11-20T04:06:41;36.03;;;21.30;;
40847;SDS011;26570;50.962;5.340;2022-11-20T04:09:26;37.13;;;22.13;;
40847;SDS011;26570;50.962;5.340;2022-11-20T04:12:11;36.00;;;21.27;;
40847;SDS011;26570;50.962;5.340;2022-11-20T04:14:56;33.43;;;20.60;;
40847;SDS011;26570;50.962;5.340;2022-11-20T04:17:41;32.27;;;20.67;;
40847;SDS011;26570;50.962;5.340;2022-11-20T04:20:26;35.20;;;21.00;;
40847;SDS011;26570;50.962;5.340;2022-11-20T04:23:11;37.77;;;21.80;;
40847;SDS011;26570;50.962;5.340;2022-11-20T04:26:00;36.60;;;21.47;;
40847;SDS011;26570;50.962;5.340;2022-11-20T04:28:47;35.90;;;22.33;;
40847;SDS011;26570;50.962;5.340;2022-11-20T04:31:33;38.77;;;21.87;;
40847;SDS011;26570;50.962;5.340;2022-11-20T04:34:18;37.77;;;21.40;;
40847;SDS011;26570;50.962;5.340;2022-11-20T04:37:04;35.80;;;21.27;;
40847;SDS011;26570;50.962;5.340;2022-11-20T04:39:48;37.73;;;21.87;;
40847;SDS011;26570;50.962;5.340;2022-11-20T04:42:33;52.67;;;26.53;;
40847;SDS011;26570;50.962;5.340;2022-11-20T04:45:18;49.30;;;26.23;;
40847;SDS011;26570;50.962;5.340;2022-11-20T04:48:03;59.67;;;28.07;;
40847;SDS011;26570;50.962;5.340;2022-11-20T04:50:48;52.97;;;26.37;;
40847;SDS011;26570;50.962;5.340;2022-11-20T04:53:33;60.07;;;29.67;;
40847;SDS011;26570;50.962;5.340;2022-11-20T04:56:18;61.30;;;29.60;;
40847;SDS011;26570;50.962;5.340;2022-11-20T04:59:03;57.73;;;29.53;;
40847;SDS011;26570;50.962;5.340;2022-11-20T05:01:48;62.37;;;31.63;;
40847;SDS011;26570;50.962;5.340;2022-11-20T05:04:33;63.03;;;31.50;;
40847;SDS011;26570;50.962;5.340;2022-11-20T05:07:18;68.13;;;31.27;;
40847;SDS011;26570;50.962;5.340;2022-11-20T05:10:03;64.50;;;29.63;;
40847;SDS011;26570;50.962;5.340;2022-11-20T05:12:48;70.00;;;32.67;;
40847;SDS011;26570;50.962;5.340;2022-11-20T05:15:34;60.77;;;31.07;;
40847;SDS011;26570;50.962;5.340;2022-11-20T05:18:41;63.70;;;31.03;;
40847;SDS011;26570;50.962;5.340;2022-11-20T05:21:26;69.77;;;30.33;;
40847;SDS011;26570;50.962;5.340;2022-11-20T05:24:11;63.63;;;31.67;;
40847;SDS011;26570;50.962;5.340;2022-11-20T05:26:56;61.30;;;31.73;;
40847;SDS011;26570;50.962;5.340;2022-11-20T05:29:41;71.33;;;30.83;;
40847;SDS011;26570;50.962;5.340;2022-11-20T05:32:26;63.63;;;31.87;;
40847;SDS011;26570;50.962;5.340;2022-11-20T05:35:11;58.03;;;31.03;;
40847;SDS011;26570;50.962;5.340;2022-11-20T05:37:56;70.03;;;32.00;;
40847;SDS011;26570;50.962;5.340;2022-11-20T05:40:41;67.07;;;32.63;;
40847;SDS011;26570;50.962;5.340;2022-11-20T05:43:26;66.80;;;32.37;;
40847;SDS011;26570;50.962;5.340;2022-11-20T05:46:12;58.43;;;30.63;;
40847;SDS011;26570;50.962;5.340;2022-11-20T05:48:59;77.03;;;33.00;;
40847;SDS011;26570;50.962;5.340;2022-11-20T05:51:44;58.80;;;31.33;;
40847;SDS011;26570;50.962;5.340;2022-11-20T05:54:29;66.20;;;30.43;;
40847;SDS011;26570;50.962;5.340;2022-11-20T05:57:13;59.87;;;30.20;;
40847;SDS011;26570;50.962;5.340;2022-11-20T05:59:59;59.90;;;30.20;;
40847;SDS011;26570;50.962;5.340;2022-11-20T06:02:44;64.30;;;29.83;;
40847;SDS011;26570;50.962;5.340;2022-11-20T06:05:29;66.53;;;30.40;;
40847;SDS011;26570;50.962;5.340;2022-11-20T06:08:13;66.20;;;31.87;;
40847;SDS011;26570;50.962;5.340;2022-11-20T06:11:02;65.13;;;31.07;;
40847;SDS011;26570;50.962;5.340;2022-11-20T06:13:52;69.33;;;31.27;;
40847;SDS011;26570;50.962;5.340;2022-11-20T06:16:37;69.77;;;32.57;;
40847;SDS011;26570;50.962;5.340;2022-11-20T06:19:22;72.83;;;32.27;;
40847;SDS011;26570;50.962;5.340;2022-11-20T06:22:07;71.47;;;32.27;;
40847;SDS011;26570;50.962;5.340;2022-11-20T06:24:52;69.90;;;32.87;;
40847;SDS011;26570;50.962;5.340;2022-11-20T06:27:37;68.23;;;32.77;;
40847;SDS011;26570;50.962;5.340;2022-11-20T06:30:22;68.03;;;31.70;;
40847;SDS011;26570;50.962;5.340;2022-11-20T06:33:07;63.90;;;31.33;;
40847;SDS011;26570;50.962;5.340;2022-11-20T06:35:52;63.93;;;31.40;;
40847;SDS011;26570;50.962;5.340;2022-11-20T06:38:40;64.63;;;30.77;;
40847;SDS011;26570;50.962;5.340;2022-11-20T06:41:25;68.37;;;33.47;;
40847;SDS011;26570;50.962;5.340;2022-11-20T06:44:10;69.83;;;31.97;;
40847;SDS011;26570;50.962;5.340;2022-11-20T06:46:55;67.60;;;30.47;;
40847;SDS011;26570;50.962;5.340;2022-11-20T06:49:39;63.27;;;31.23;;
40847;SDS011;26570;50.962;5.340;2022-11-20T06:52:25;59.40;;;29.63;;
40847;SDS011;26570;50.962;5.340;2022-11-20T06:55:10;62.13;;;30.30;;
40847;SDS011;26570;50.962;5.340;2022-11-20T06:57:55;62.10;;;30.87;;
40847;SDS011;26570;50.962;5.340;2022-11-20T07:00:40;60.20;;;29.90;;
40847;SDS011;26570;50.962;5.340;2022-11-20T07:03:24;66.97;;;30.97;;
40847;SDS011;26570;50.962;5.340;2022-11-20T07:06:10;63.47;;;31.50;;
40847;SDS011;26570;50.962;5.340;2022-11-20T07:08:55;61.80;;;30.27;;
40847;SDS011;26570;50.962;5.340;2022-11-20T07:11:40;70.83;;;31.90;;
40847;SDS011;26570;50.962;5.340;2022-11-20T07:14:25;61.57;;;30.13;;
40847;SDS011;26570;50.962;5.340;2022-11-20T07:17:11;75.23;;;32.10;;
40847;SDS011;26570;50.962;5.340;2022-11-20T07:19:58;70.80;;;31.10;;
40847;SDS011;26570;50.962;5.340;2022-11-20T07:22:42;65.80;;;31.80;;
40847;SDS011;26570;50.962;5.340;2022-11-20T07:25:27;66.27;;;30.97;;
40847;SDS011;26570;50.962;5.340;2022-11-20T07:28:13;66.37;;;31.70;;
40847;SDS011;26570;50.962;5.340;2022-11-20T07:30:58;70.80;;;32.87;;
40847;SDS011;26570;50.962;5.340;2022-11-20T07:33:43;71.97;;;32.47;;
40847;SDS011;26570;50.962;5.340;2022-11-20T07:36:28;66.50;;;31.70;;
40847;SDS011;26570;50.962;5.340;2022-11-20T07:39:13;67.50;;;31.03;;
40847;SDS011;26570;50.962;5.340;2022-11-20T07:41:58;71.90;;;31.97;;
40847;SDS011;26570;50.962;5.340;2022-11-20T07:44:43;63.63;;;30.70;;
40847;SDS011;26570;50.962;5.340;2022-11-20T07:47:28;65.17;;;32.77;;
40847;SDS011;26570;50.962;5.340;2022-11-20T07:50:19;69.93;;;34.03;;
40847;SDS011;26570;50.962;5.340;2022-11-20T07:53:05;69.63;;;32.53;;
40847;SDS011;26570;50.962;5.340;2022-11-20T07:55:50;63.47;;;32.87;;
40847;SDS011;26570;50.962;5.340;2022-11-20T07:58:38;73.17;;;33.87;;
40847;SDS011;26570;50.962;5.340;2022-11-20T08:01:23;62.33;;;29.60;;
40847;SDS011;26570;50.962;5.340;2022-11-20T08:04:08;64.13;;;29.90;;
40847;SDS011;26570;50.962;5.340;2022-11-20T08:06:53;61.37;;;29.50;;
40847;SDS011;26570;50.962;5.340;2022-11-20T08:09:38;65.90;;;30.67;;
40847;SDS011;26570;50.962;5.340;2022-11-20T08:12:23;65.33;;;31.07;;
40847;SDS011;26570;50.962;5.340;2022-11-20T08:15:27;57.65;;;29.60;;
40847;SDS011;26570;50.962;5.340;2022-11-20T08:18:12;65.20;;;30.07;;
40847;SDS011;26570;50.962;5.340;2022-11-20T08:20:58;68.83;;;29.53;;
40847;SDS011;26570;50.962;5.340;2022-11-20T08:23:46;56.17;;;27.73;;
40847;SDS011;26570;50.962;5.340;2022-11-20T08:26:31;54.77;;;27.47;;
40847;SDS011;26570;50.962;5.340;2022-11-20T08:29:16;56.03;;;29.13;;
40847;SDS011;26570;50.962;5.340;2022-11-20T08:32:08;62.07;;;29.87;;
40847;SDS011;26570;50.962;5.340;2022-11-20T08:34:53;58.10;;;29.67;;
40847;SDS011;26570;50.962;5.340;2022-11-20T08:37:38;62.27;;;30.40;;
40847;SDS011;26570;50.962;5.340;2022-11-20T08:40:25;59.50;;;29.60;;
40847;SDS011;26570;50.962;5.340;2022-11-20T08:43:10;59.47;;;29.70;;
40847;SDS011;26570;50.962;5.340;2022-11-20T08:45:57;65.30;;;31.00;;
40847;SDS011;26570;50.962;5.340;2022-11-20T08:48:42;59.97;;;30.03;;
40847;SDS011;26570;50.962;5.340;2022-11-20T08:51:29;66.57;;;31.93;;
40847;SDS011;26570;50.962;5.340;2022-11-20T08:54:14;68.30;;;32.60;;
40847;SDS011;26570;50.962;5.340;2022-11-20T08:56:59;64.13;;;32.00;;
40847;SDS011;26570;50.962;5.340;2022-11-20T08:59:43;68.73;;;32.07;;
40847;SDS011;26570;50.962;5.340;2022-11-20T09:02:28;66.10;;;30.20;;
40847;SDS011;26570;50.962;5.340;2022-11-20T09:05:14;62.57;;;30.73;;
40847;SDS011;26570;50.962;5.340;2022-11-20T09:07:59;60.07;;;30.17;;
40847;SDS011;26570;50.962;5.340;2022-11-20T09:10:44;63.50;;;29.10;;
40847;SDS011;26570;50.962;5.340;2022-11-20T09:13:28;62.07;;;29.37;;
40847;SDS011;26570;50.962;5.340;2022-11-20T09:16:13;58.47;;;28.60;;
40847;SDS011;26570;50.962;5.340;2022-11-20T09:18:58;60.27;;;30.77;;
40847;SDS011;26570;50.962;5.340;2022-11-20T09:21:43;62.23;;;28.03;;
40847;SDS011;26570;50.962;5.340;2022-11-20T09:24:27;59.20;;;28.90;;
40847;SDS011;26570;50.962;5.340;2022-11-20T09:27:12;61.40;;;29.20;;
40847;SDS011;26570;50.962;5.340;2022-11-20T09:29:57;60.30;;;28.97;;
40847;SDS011;26570;50.962;5.340;2022-11-20T09:32:42;60.67;;;30.03;;
40847;SDS011;26570;50.962;5.340;2022-11-20T09:35:27;59.97;;;28.53;;
40847;SDS011;26570;50.962;5.340;2022-11-20T09:38:12;61.67;;;31.40;;
40847;SDS011;26570;50.962;5.340;2022-11-20T09:41:03;62.13;;;30.17;;
40847;SDS011;26570;50.962;5.340;2022-11-20T09:43:53;65.80;;;32.13;;
40847;SDS011;26570;50.962;5.340;2022-11-20T09:56:06;61.87;;;28.20;;
40847;SDS011;26570;50.962;5.340;2022-11-20T09:58:54;57.73;;;28.73;;
40847;SDS011;26570;50.962;5.340;2022-11-20T10:01:42;62.67;;;28.50;;
40847;SDS011;26570;50.962;5.340;2022-11-20T10:04:29;64.50;;;29.00;;
40847;SDS011;26570;50.962;5.340;2022-11-20T10:07:18;64.60;;;29.00;;
40847;SDS011;26570;50.962;5.340;2022-11-20T10:10:21;62.27;;;28.33;;
40847;SDS011;26570;50.962;5.340;2022-11-20T10:16:53;66.70;;;30.37;;
40847;SDS011;26570;50.962;5.340;2022-11-20T10:23:00;70.00;;;29.77;;
40847;SDS011;26570;50.962;5.340;2022-11-20T10:28:53;78.03;;;31.77;;
40847;SDS011;26570;50.962;5.340;2022-11-20T10:32:01;69.67;;;29.73;;
40847;SDS011;26570;50.962;5.340;2022-11-20T10:34:57;72.43;;;30.87;;
40847;SDS011;26570;50.962;5.340;2022-11-20T10:37:58;72.97;;;30.03;;
40847;SDS011;26570;50.962;5.340;2022-11-20T10:40:46;72.50;;;30.43;;
40847;SDS011;26570;50.962;5.340;2022-11-20T10:44:04;65.13;;;29.60;;
40847;SDS011;26570;50.962;5.340;2022-11-20T10:46:53;65.27;;;29.17;;
40847;SDS011;26570;50.962;5.340;2022-11-20T10:49:38;73.57;;;30.57;;
40847;SDS011;26570;50.962;5.340;2022-11-20T10:52:28;67.87;;;28.97;;
40847;SDS011;26570;50.962;5.340;2022-11-20T10:56:24;73.73;;;29.90;;
40847;SDS011;26570;50.962;5.340;2022-11-20T11:02:21;69.73;;;29.53;;
40847;SDS011;26570;50.962;5.340;2022-11-20T11:05:11;69.47;;;29.07;;
40847;SDS011;26570;50.962;5.340;2022-11-20T11:08:12;69.13;;;29.67;;
40847;SDS011;26570;50.962;5.340;2022-11-20T11:10:59;73.73;;;29.77;;
40847;SDS011;26570;50.962;5.340;2022-11-20T11:13:51;72.77;;;29.20;;
40847;SDS011;26570;50.962;5.340;2022-11-20T11:16:35;70.33;;;30.70;;
40847;SDS011;26570;50.962;5.340;2022-11-20T11:19:33;72.10;;;29.53;;
40847;SDS011;26570;50.962;5.340;2022-11-20T11:22:17;67.87;;;30.53;;
40847;SDS011;26570;50.962;5.340;2022-11-20T11:25:02;70.70;;;29.60;;
40847;SDS011;26570;50.962;5.340;2022-11-20T11:27:48;65.80;;;28.50;;
40847;SDS011;26570;50.962;5.340;2022-11-20T11:30:41;70.17;;;31.03;;
40847;SDS011;26570;50.962;5.340;2022-11-20T11:33:28;71.07;;;30.77;;
40847;SDS011;26570;50.962;5.340;2022-11-20T11:36:20;67.10;;;29.40;;
40847;SDS011;26570;50.962;5.340;2022-11-20T11:39:14;63.75;;;28.92;;
40847;SDS011;26570;50.962;5.340;2022-11-20T11:42:01;71.93;;;31.47;;
40847;SDS011;26570;50.962;5.340;2022-11-20T11:44:47;71.73;;;29.77;;
40847;SDS011;26570;50.962;5.340;2022-11-20T11:47:50;67.50;;;29.70;;
40847;SDS011;26570;50.962;5.340;2022-11-20T11:50:36;69.30;;;31.17;;
40847;SDS011;26570;50.962;5.340;2022-11-20T11:53:33;69.33;;;30.10;;
40847;SDS011;26570;50.962;5.340;2022-11-20T11:56:25;65.70;;;29.30;;
40847;SDS011;26570;50.962;5.340;2022-11-20T11:59:12;65.57;;;28.80;;
40847;SDS011;26570;50.962;5.340;2022-11-20T12:02:47;68.73;;;26.70;;
40847;SDS011;26570;50.962;5.340;2022-11-20T12:08:21;61.33;;;26.33;;
40847;SDS011;26570;50.962;5.340;2022-11-20T12:11:19;59.63;;;27.77;;
40847;SDS011;26570;50.962;5.340;2022-11-20T12:17:20;57.53;;;24.77;;
40847;SDS011;26570;50.962;5.340;2022-11-20T12:20:10;52.53;;;25.60;;
40847;SDS011;26570;50.962;5.340;2022-11-20T12:23:14;49.97;;;24.30;;
40847;SDS011;26570;50.962;5.340;2022-11-20T12:26:45;50.47;;;23.30;;
40847;SDS011;26570;50.962;5.340;2022-11-20T12:39:02;46.60;;;21.55;;
40847;SDS011;26570;50.962;5.340;2022-11-20T12:45:54;38.00;;;18.03;;
40847;SDS011;26570;50.962;5.340;2022-11-20T12:48:55;35.73;;;17.17;;
40847;SDS011;26570;50.962;5.340;2022-11-20T12:52:14;17.43;;;6.73;;
40847;SDS011;26570;50.962;5.340;2022-11-20T12:58:25;11.70;;;1.50;;
40847;SDS011;26570;50.962;5.340;2022-11-20T13:01:33;4.97;;;1.10;;
40847;SDS011;26570;50.962;5.340;2022-11-20T13:07:59;4.37;;;0.70;;
40847;SDS011;26570;50.962;5.340;2022-11-20T13:10:57;3.60;;;0.90;;
40847;SDS011;26570;50.962;5.340;2022-11-20T13:17:09;2.27;;;0.50;;
40847;SDS011;26570;50.962;5.340;2022-11-20T13:20:05;2.43;;;0.47;;
40847;SDS011;26570;50.962;5.340;2022-11-20T13:22:56;3.50;;;0.40;;
40847;SDS011;26570;50.962;5.340;2022-11-20T13:25:42;4.80;;;0.50;;
40847;SDS011;26570;50.962;5.340;2022-11-20T13:28:27;10.00;;;0.60;;
40847;SDS011;26570;50.962;5.340;2022-11-20T13:31:33;3.60;;;0.40;;
40847;SDS011;26570;50.962;5.340;2022-11-20T13:34:23;2.97;;;0.40;;
40847;SDS011;26570;50.962;5.340;2022-11-20T13:37:23;2.87;;;0.60;;
40847;SDS011;26570;50.962;5.340;2022-11-20T13:40:20;2.77;;;0.40;;
40847;SDS011;26570;50.962;5.340;2022-11-20T13:46:06;6.00;;;0.60;;
40847;SDS011;26570;50.962;5.340;2022-11-20T13:48:52;2.80;;;0.60;;
40847;SDS011;26570;50.962;5.340;2022-11-20T13:57:44;5.43;;;0.57;;
40847;SDS011;26570;50.962;5.340;2022-11-20T14:00:33;6.07;;;0.63;;
40847;SDS011;26570;50.962;5.340;2022-11-20T14:03:29;4.73;;;0.60;;
40847;SDS011;26570;50.962;5.340;2022-11-20T14:06:28;10.40;;;0.63;;
40847;SDS011;26570;50.962;5.340;2022-11-20T14:09:28;7.53;;;0.90;;
40847;SDS011;26570;50.962;5.340;2022-11-20T14:12:15;7.23;;;0.80;;
40847;SDS011;26570;50.962;5.340;2022-11-20T14:15:02;6.80;;;0.97;;
40847;SDS011;26570;50.962;5.340;2022-11-20T14:17:47;6.10;;;0.80;;
40847;SDS011;26570;50.962;5.340;2022-11-20T14:20:32;7.90;;;0.60;;
40847;SDS011;26570;50.962;5.340;2022-11-20T14:23:27;5.47;;;0.80;;
40847;SDS011;26570;50.962;5.340;2022-11-20T14:26:14;6.17;;;0.60;;
40847;SDS011;26570;50.962;5.340;2022-11-20T14:29:04;9.90;;;0.87;;
40847;SDS011;26570;50.962;5.340;2022-11-20T14:31:52;10.07;;;0.80;;
40847;SDS011;26570;50.962;5.340;2022-11-20T14:34:50;9.27;;;0.90;;
40847;SDS011;26570;50.962;5.340;2022-11-20T14:37:44;4.93;;;0.70;;
40847;SDS011;26570;50.962;5.340;2022-11-20T14:40:34;10.10;;;1.00;;
40847;SDS011;26570;50.962;5.340;2022-11-20T14:43:24;6.57;;;0.80;;
40847;SDS011;26570;50.962;5.340;2022-11-20T14:46:10;4.83;;;0.90;;
40847;SDS011;26570;50.962;5.340;2022-11-20T14:48:56;5.97;;;0.70;;
40847;SDS011;26570;50.962;5.340;2022-11-20T14:51:45;7.03;;;0.73;;
40847;SDS011;26570;50.962;5.340;2022-11-20T14:54:30;7.87;;;1.50;;
40847;SDS011;26570;50.962;5.340;2022-11-20T14:57:27;7.40;;;0.80;;
40847;SDS011;26570;50.962;5.340;2022-11-20T15:02:58;4.83;;;0.80;;
40847;SDS011;26570;50.962;5.340;2022-11-20T15:05:44;4.57;;;0.90;;
40847;SDS011;26570;50.962;5.340;2022-11-20T15:08:31;5.73;;;1.17;;
40847;SDS011;26570;50.962;5.340;2022-11-20T15:11:18;10.77;;;1.30;;
40847;SDS011;26570;50.962;5.340;2022-11-20T15:14:08;5.03;;;1.37;;
40847;SDS011;26570;50.962;5.340;2022-11-20T15:16:54;8.40;;;1.53;;
40847;SDS011;26570;50.962;5.340;2022-11-20T15:19:40;5.00;;;1.33;;
40847;SDS011;26570;50.962;5.340;2022-11-20T15:22:25;3.57;;;1.40;;
40847;SDS011;26570;50.962;5.340;2022-11-20T15:25:16;6.40;;;1.50;;
40847;SDS011;26570;50.962;5.340;2022-11-20T15:28:04;7.50;;;1.40;;
40847;SDS011;26570;50.962;5.340;2022-11-20T15:30:53;8.23;;;1.90;;
40847;SDS011;26570;50.962;5.340;2022-11-20T15:33:40;7.93;;;2.50;;
40847;SDS011;26570;50.962;5.340;2022-11-20T15:36:25;5.63;;;2.17;;
40847;SDS011;26570;50.962;5.340;2022-11-20T15:39:10;8.90;;;3.17;;
40847;SDS011;26570;50.962;5.340;2022-11-20T15:41:55;5.03;;;1.90;;
40847;SDS011;26570;50.962;5.340;2022-11-20T15:44:40;9.00;;;1.80;;
40847;SDS011;26570;50.962;5.340;2022-11-20T15:47:27;8.33;;;1.60;;
40847;SDS011;26570;50.962;5.340;2022-11-20T15:50:14;3.53;;;1.47;;
40847;SDS011;26570;50.962;5.340;2022-11-20T15:53:01;5.77;;;2.00;;
40847;SDS011;26570;50.962;5.340;2022-11-20T15:55:48;3.30;;;1.40;;
40847;SDS011;26570;50.962;5.340;2022-11-20T15:58:34;9.37;;;1.87;;
40847;SDS011;26570;50.962;5.340;2022-11-20T16:01:20;4.83;;;1.30;;
40847;SDS011;26570;50.962;5.340;2022-11-20T16:04:12;11.37;;;3.27;;
40847;SDS011;26570;50.962;5.340;2022-11-20T16:06:59;1.90;;;0.90;;
40847;SDS011;26570;50.962;5.340;2022-11-20T16:09:44;4.73;;;1.57;;
40847;SDS011;26570;50.962;5.340;2022-11-20T16:12:30;1.67;;;1.00;;
40847;SDS011;26570;50.962;5.340;2022-11-20T16:15:34;3.55;;;1.10;;
40847;SDS011;26570;50.962;5.340;2022-11-20T16:18:31;2.00;;;1.20;;
40847;SDS011;26570;50.962;5.340;2022-11-20T16:21:17;3.10;;;0.90;;
40847;SDS011;26570;50.962;5.340;2022-11-20T16:24:03;10.03;;;1.20;;
40847;SDS011;26570;50.962;5.340;2022-11-20T16:26:53;4.33;;;1.50;;
40847;SDS011;26570;50.962;5.340;2022-11-20T16:29:38;2.90;;;1.23;;
40847;SDS011;26570;50.962;5.340;2022-11-20T16:32:23;3.83;;;1.63;;
40847;SDS011;26570;50.962;5.340;2022-11-20T16:35:08;8.17;;;2.60;;
40847;SDS011;26570;50.962;5.340;2022-11-20T16:37:53;7.07;;;2.90;;
40847;SDS011;26570;50.962;5.340;2022-11-20T16:40:40;7.70;;;3.20;;
40847;SDS011;26570;50.962;5.340;2022-11-20T16:43:25;4.13;;;2.50;;
40847;SDS011;26570;50.962;5.340;2022-11-20T16:46:10;7.10;;;3.40;;
40847;SDS011;26570;50.962;5.340;2022-11-20T16:48:59;6.27;;;2.40;;
40847;SDS011;26570;50.962;5.340;2022-11-20T16:51:49;11.57;;;4.00;;
40847;SDS011;26570;50.962;5.340;2022-11-20T16:54:34;6.33;;;2.63;;
40847;SDS011;26570;50.962;5.340;2022-11-20T16:57:20;7.20;;;3.10;;
40847;SDS011;26570;50.962;5.340;2022-11-20T17:00:06;10.23;;;3.50;;
40847;SDS011;26570;50.962;5.340;2022-11-20T17:02:51;6.40;;;3.03;;
40847;SDS011;26570;50.962;5.340;2022-11-20T17:05:36;13.33;;;2.80;;
40847;SDS011;26570;50.962;5.340;2022-11-20T17:08:21;11.37;;;3.57;;
40847;SDS011;26570;50.962;5.340;2022-11-20T17:11:07;11.67;;;3.57;;
40847;SDS011;26570;50.962;5.340;2022-11-20T17:13:54;9.03;;;3.53;;
40847;SDS011;26570;50.962;5.340;2022-11-20T17:16:40;8.33;;;2.17;;
40847;SDS011;26570;50.962;5.340;2022-11-20T17:19:26;19.47;;;3.40;;
40847;SDS011;26570;50.962;5.340;2022-11-20T17:22:11;13.53;;;3.07;;
40847;SDS011;26570;50.962;5.340;2022-11-20T17:24:55;9.47;;;2.83;;
40847;SDS011;26570;50.962;5.340;2022-11-20T17:27:40;13.23;;;1.90;;
40847;SDS011;26570;50.962;5.340;2022-11-20T17:30:25;15.67;;;2.27;;
40847;SDS011;26570;50.962;5.340;2022-11-20T17:33:10;21.90;;;4.90;;
40847;SDS011;26570;50.962;5.340;2022-11-20T17:36:23;14.37;;;2.40;;
40847;SDS011;26570;50.962;5.340;2022-11-20T17:39:10;18.53;;;2.83;;
40847;SDS011;26570;50.962;5.340;2022-11-20T17:41:59;23.13;;;2.93;;